Time;durP1;ratioP1;P1;durP2;ratioP2;P2;SDS_P1;SDS_P2;PMS_P1;PMS_P2;Temp;Humidity;BMP_temperature;BMP_pressure;BME280_temperature;BME280_humidity;BME280_pressure;Samples;Min_cycle;Max_cycle;Signal;HPM_P1;HPM_P2
2022/11/28 00:01:35;;;;;;;93.80;34.30;;;3.50;99.90;;;;;;4996545;28;20097;-75
2022/11/28 00:04:02;;;;;;;83.30;31.77;;;3.50;99.90;;;;;;4980475;28;20125;-75
2022/11/28 00:06:28;;;;;;;86.25;32.53;;;3.50;99.90;;;;;;4997267;28;20382;-74
2022/11/28 00:08:56;;;;;;;88.63;32.40;;;3.60;99.90;;;;;;4981572;28;20027;-74
2022/11/28 00:11:22;;;;;;;84.57;32.08;;;3.60;99.90;;;;;;4998290;28;20027;-74
2022/11/28 00:13:48;;;;;;;100.82;36.42;;;3.60;99.90;;;;;;4998257;28;20069;-74
2022/11/28 00:16:20;;;;;;;80.80;31.35;;;3.60;99.90;;;;;;4999241;28;20036;-75
2022/11/28 00:18:46;;;;;;;78.03;31.05;;;3.60;99.90;;;;;;4984059;28;20034;-75
2022/11/28 00:21:13;;;;;;;78.38;32.15;;;3.60;99.90;;;;;;4985112;28;20031;-75
2022/11/28 00:23:40;;;;;;;80.80;31.48;;;3.60;99.90;;;;;;4984286;28;20038;-74
2022/11/28 00:26:15;;;;;;;80.50;32.08;;;3.60;99.90;;;;;;5001411;28;20125;-74
2022/11/28 00:28:41;;;;;;;67.90;29.85;;;3.60;99.90;;;;;;5001472;28;20038;-74
2022/11/28 00:31:12;;;;;;;83.80;33.42;;;3.50;99.90;;;;;;5001769;28;20050;-75
2022/11/28 00:33:37;;;;;;;76.43;32.05;;;3.60;99.90;;;;;;5001448;28;20027;-75
2022/11/28 00:36:04;;;;;;;72.30;30.60;;;3.60;99.90;;;;;;5002273;28;20054;-74
2022/11/28 00:38:30;;;;;;;70.85;32.47;;;3.60;99.90;;;;;;5000586;28;20027;-75
2022/11/28 00:41:24;;;;;;;70.45;31.40;;;3.60;99.90;;;;;;4999387;28;20048;-75
2022/11/28 00:43:50;;;;;;;69.28;30.27;;;3.60;99.90;;;;;;4980945;28;20398;-75
2022/11/28 00:46:17;;;;;;;65.15;28.90;;;3.60;99.90;;;;;;5002445;28;20031;-74
2022/11/28 00:48:43;;;;;;;59.95;28.73;;;3.50;99.90;;;;;;5001975;28;20367;-74
2022/11/28 00:51:09;;;;;;;54.20;27.20;;;3.50;99.90;;;;;;5001977;28;20053;-74
2022/11/28 00:53:36;;;;;;;58.20;26.13;;;3.40;99.90;;;;;;5000268;28;20382;-75
2022/11/28 00:56:05;;;;;;;53.70;25.00;;;3.40;99.90;;;;;;5000845;28;20039;-75
2022/11/28 00:58:32;;;;;;;51.13;24.70;;;3.40;99.90;;;;;;4998770;28;20441;-75
2022/11/28 01:00:58;;;;;;;51.60;24.83;;;3.40;99.90;;;;;;4999825;28;20034;-74
2022/11/28 01:03:24;;;;;;;54.55;24.85;;;3.30;99.90;;;;;;4998338;28;20033;-75
2022/11/28 01:05:49;;;;;;;51.08;24.63;;;3.20;99.90;;;;;;4981242;28;20030;-75
2022/11/28 01:08:15;;;;;;;52.10;25.08;;;3.20;99.90;;;;;;4999676;28;20465;-74
2022/11/28 01:10:43;;;;;;;47.78;24.15;;;3.20;99.90;;;;;;4996454;28;20434;-75
2022/11/28 01:13:09;;;;;;;48.85;25.00;;;3.10;99.90;;;;;;5001104;28;20029;-75
2022/11/28 01:15:36;;;;;;;48.85;23.70;;;3.10;99.90;;;;;;5003526;28;20031;-74
2022/11/28 01:18:02;;;;;;;49.95;24.95;;;3.10;99.90;;;;;;5001771;28;20057;-74
2022/11/28 01:20:27;;;;;;;50.33;24.23;;;3.10;99.90;;;;;;5001441;28;20053;-75
2022/11/28 01:22:53;;;;;;;51.45;23.55;;;3.00;99.90;;;;;;5002511;28;20041;-75
2022/11/28 01:25:19;;;;;;;47.85;23.45;;;3.10;99.90;;;;;;5003476;28;20061;-75
2022/11/28 01:27:45;;;;;;;47.58;22.63;;;3.00;99.90;;;;;;5003613;28;20035;-74
2022/11/28 01:30:11;;;;;;;49.67;24.25;;;3.00;99.90;;;;;;5001290;28;20038;-74
2022/11/28 01:32:37;;;;;;;50.40;22.70;;;2.90;99.90;;;;;;5004073;28;20030;-74
2022/11/28 01:35:03;;;;;;;44.88;22.42;;;2.80;99.90;;;;;;5005980;28;20076;-74
2022/11/28 01:37:29;;;;;;;46.22;23.02;;;2.80;99.90;;;;;;5004702;28;20106;-75
2022/11/28 01:39:55;;;;;;;56.22;24.70;;;2.80;99.90;;;;;;5005080;28;20071;-74
2022/11/28 01:42:21;;;;;;;52.17;25.63;;;2.80;99.90;;;;;;5002950;28;20089;-75
2022/11/28 01:44:46;;;;;;;51.17;24.23;;;2.80;99.90;;;;;;5003986;28;20033;-75
2022/11/28 01:47:14;;;;;;;48.30;24.40;;;2.80;99.90;;;;;;5002307;28;20027;-74
2022/11/28 01:49:40;;;;;;;51.53;23.65;;;2.80;99.90;;;;;;5002812;28;20441;-74
2022/11/28 01:52:14;;;;;;;48.83;22.60;;;2.80;99.90;;;;;;5001309;28;20026;-74
2022/11/28 01:54:43;;;;;;;48.00;22.27;;;2.70;99.90;;;;;;4984532;28;20030;-74
2022/11/28 01:57:12;;;;;;;47.28;21.98;;;2.70;99.90;;;;;;5000055;28;20450;-74
2022/11/28 01:59:42;;;;;;;45.95;20.92;;;2.70;99.90;;;;;;5002139;28;20493;-74
2022/11/28 02:02:14;;;;;;;47.47;21.58;;;2.70;99.90;;;;;;5001061;28;20068;-74
2022/11/28 02:04:41;;;;;;;52.38;21.63;;;2.70;99.90;;;;;;4985181;28;20478;-75
2022/11/28 02:07:07;;;;;;;47.45;22.13;;;2.70;99.90;;;;;;5000735;28;20125;-74
2022/11/28 02:09:32;;;;;;;55.08;21.10;;;2.70;99.90;;;;;;5001930;28;20506;-75
2022/11/28 02:12:25;;;;;;;49.20;21.17;;;2.70;99.90;;;;;;5002370;28;20026;-75
2022/11/28 02:15:05;;;;;;;44.85;19.98;;;2.70;99.90;;;;;;5002403;28;20085;-74
2022/11/28 02:17:59;;;;;;;42.40;19.90;;;2.70;99.90;;;;;;5002190;28;20026;-74
2022/11/28 02:20:44;;;;;;;46.42;19.70;;;2.80;99.90;;;;;;5003553;28;20026;-74
2022/11/28 02:23:31;;;;;;;45.50;20.30;;;2.70;99.90;;;;;;4999757;28;20026;-74
2022/11/28 02:26:08;;;;;;;51.30;19.50;;;2.70;99.90;;;;;;5000242;28;20041;-75
2022/11/28 02:28:49;;;;;;;55.38;20.48;;;2.70;99.90;;;;;;4999195;28;20040;-75
2022/11/28 02:31:48;;;;;;;42.20;19.70;;;2.80;99.90;;;;;;5001626;28;20025;-75
2022/11/28 02:34:38;;;;;;;42.55;19.52;;;2.70;99.90;;;;;;4998479;28;20034;-73
2022/11/28 02:37:25;;;;;;;47.50;19.05;;;2.70;99.90;;;;;;5000873;28;20462;-75
2022/11/28 02:40:12;;;;;;;51.00;20.00;;;2.80;99.90;;;;;;5002004;28;20026;-74
2022/11/28 02:43:06;;;;;;;50.72;20.23;;;2.80;99.90;;;;;;5000361;28;20030;-74
2022/11/28 02:45:34;;;;;;;48.05;20.10;;;2.80;99.90;;;;;;5000634;28;20518;-75
2022/11/28 02:48:12;;;;;;;48.88;20.52;;;2.90;99.90;;;;;;4999860;28;20041;-75
2022/11/28 02:50:51;;;;;;;42.58;18.15;;;2.90;99.90;;;;;;4999414;28;20038;-74
2022/11/28 02:53:23;;;;;;;47.33;19.58;;;2.90;99.90;;;;;;4998121;28;20031;-75
2022/11/28 02:55:50;;;;;;;51.45;20.00;;;3.00;99.90;;;;;;4981847;28;20035;-75
2022/11/28 02:58:17;;;;;;;51.42;21.05;;;2.90;99.90;;;;;;4996705;28;20037;-74
2022/11/28 03:00:45;;;;;;;49.35;20.35;;;2.90;99.90;;;;;;4997167;28;20026;-74
2022/11/28 03:03:38;;;;;;;51.90;21.13;;;3.00;99.90;;;;;;4995778;28;20040;-75
2022/11/28 03:06:25;;;;;;;47.50;19.42;;;3.00;99.90;;;;;;4993425;28;20070;-74
2022/11/28 03:09:15;;;;;;;52.97;20.60;;;3.00;99.90;;;;;;4998643;28;20479;-74
2022/11/28 03:12:14;;;;;;;46.80;20.52;;;3.00;99.90;;;;;;4996850;28;20061;-75
2022/11/28 03:15:03;;;;;;;47.17;19.58;;;3.10;99.90;;;;;;4964047;28;20042;-75
2022/11/28 03:17:47;;;;;;;48.25;19.67;;;3.10;99.90;;;;;;4998560;28;20493;-75
2022/11/28 03:20:37;;;;;;;44.13;18.70;;;3.20;99.90;;;;;;4997310;28;20085;-75
2022/11/28 03:23:15;;;;;;;47.53;19.08;;;3.20;99.90;;;;;;4995740;28;20027;-74
2022/11/28 03:25:55;;;;;;;44.17;18.50;;;3.20;99.90;;;;;;4997026;28;20148;-75
2022/11/28 03:28:28;;;;;;;46.60;18.65;;;3.30;99.90;;;;;;4995702;28;20119;-75
2022/11/28 03:30:57;;;;;;;46.72;19.15;;;3.30;99.90;;;;;;4996132;28;20479;-75
2022/11/28 03:33:26;;;;;;;43.88;19.08;;;3.30;99.90;;;;;;4996880;28;20463;-74
2022/11/28 03:35:57;;;;;;;49.45;19.63;;;3.30;99.90;;;;;;4995234;28;20073;-75
2022/11/28 03:38:32;;;;;;;43.83;18.60;;;3.30;99.90;;;;;;4979316;28;20030;-75
2022/11/28 03:41:02;;;;;;;46.72;18.98;;;3.30;99.90;;;;;;4997356;28;20033;-74
2022/11/28 03:43:35;;;;;;;42.13;17.02;;;3.30;99.90;;;;;;4996195;28;20034;-74
2022/11/28 03:46:07;;;;;;;41.65;17.55;;;3.30;99.90;;;;;;4980602;28;20026;-75
2022/11/28 03:48:40;;;;;;;39.67;18.65;;;3.30;99.90;;;;;;4997584;28;20033;-75
2022/11/28 03:51:24;;;;;;;43.47;17.33;;;3.40;99.90;;;;;;4980274;28;20030;-75
2022/11/28 03:54:01;;;;;;;34.90;16.48;;;3.40;99.90;;;;;;4996369;28;20030;-74
2022/11/28 03:56:48;;;;;;;35.85;16.70;;;3.40;99.90;;;;;;4996100;28;20116;-74
2022/11/28 03:59:50;;;;;;;39.45;17.20;;;3.40;99.90;;;;;;4996845;28;20026;-75
2022/11/28 04:02:31;;;;;;;36.78;15.82;;;3.50;99.90;;;;;;4963715;28;20038;-74
2022/11/28 04:05:13;;;;;;;37.45;16.50;;;3.50;99.90;;;;;;4996686;28;20073;-75
2022/11/28 04:07:49;;;;;;;37.25;16.20;;;3.40;99.90;;;;;;4998700;28;20058;-74
2022/11/28 04:10:30;;;;;;;43.70;17.52;;;3.50;99.90;;;;;;4998731;28;20027;-75
2022/11/28 04:13:25;;;;;;;33.70;15.25;;;3.50;99.90;;;;;;4998368;28;20023;-74
2022/11/28 04:15:57;;;;;;;34.38;15.93;;;3.50;99.90;;;;;;4950135;28;20096;-75
2022/11/28 04:18:45;;;;;;;28.15;13.80;;;3.50;99.90;;;;;;4996325;28;20026;-74
2022/11/28 04:21:16;;;;;;;31.85;15.25;;;3.60;99.90;;;;;;4996102;28;20060;-75
2022/11/28 04:23:44;;;;;;;28.73;14.10;;;3.50;99.90;;;;;;4995270;28;20026;-74
2022/11/28 04:26:19;;;;;;;25.88;13.30;;;3.60;99.90;;;;;;4996503;28;20030;-75
2022/11/28 04:28:47;;;;;;;28.80;13.75;;;3.60;99.90;;;;;;4979200;28;20026;-74
2022/11/28 04:31:16;;;;;;;27.10;13.48;;;3.60;99.90;;;;;;4995563;28;20030;-75
2022/11/28 04:33:46;;;;;;;26.05;13.05;;;3.60;99.90;;;;;;4996075;28;20030;-75
2022/11/28 04:36:15;;;;;;;26.75;13.13;;;3.60;99.90;;;;;;4997922;28;20079;-75
2022/11/28 04:38:44;;;;;;;25.58;13.52;;;3.60;99.90;;;;;;5000955;28;20027;-75
2022/11/28 04:41:11;;;;;;;;;;;3.60;99.90;;;;;;5000911;28;20041;-75
2022/11/28 04:43:42;;;;;;;27.00;13.80;;;3.60;99.90;;;;;;4999854;28;19912;-75
2022/11/28 04:46:23;;;;;;;27.67;13.40;;;3.60;99.90;;;;;;4980648;28;20031;-75
2022/11/28 04:48:49;;;;;;;29.25;13.57;;;3.60;99.90;;;;;;5001026;28;20088;-75
2022/11/28 04:51:41;;;;;;;30.45;14.38;;;3.60;99.90;;;;;;5001233;28;20414;-75
2022/11/28 04:54:16;;;;;;;28.27;13.20;;;3.60;99.90;;;;;;4999822;28;20085;-75
2022/11/28 04:56:48;;;;;;;27.23;13.70;;;3.60;99.90;;;;;;4999797;28;20034;-75
2022/11/28 04:59:15;;;;;;;27.35;13.00;;;3.60;99.90;;;;;;4984296;28;20031;-75
2022/11/28 05:01:42;;;;;;;31.42;13.70;;;3.60;99.90;;;;;;5000911;28;20371;-76
2022/11/28 05:04:09;;;;;;;30.50;14.13;;;3.60;99.90;;;;;;4999429;28;20033;-75
2022/11/28 05:06:36;;;;;;;28.20;13.55;;;3.60;99.90;;;;;;5001248;28;20030;-77
2022/11/28 05:09:03;;;;;;;26.02;13.25;;;3.60;99.90;;;;;;5001183;28;20049;-74
2022/11/28 05:11:29;;;;;;;23.58;12.07;;;3.50;99.90;;;;;;5000082;28;20022;-79
2022/11/28 05:13:55;;;;;;;21.25;12.23;;;3.50;99.90;;;;;;5000242;28;20033;-74
2022/11/28 05:16:22;;;;;;;24.25;12.23;;;3.50;99.90;;;;;;5000349;28;20057;-74
2022/11/28 05:18:48;;;;;;;24.83;12.70;;;3.60;99.90;;;;;;5000450;28;20467;-74
2022/11/28 05:21:13;;;;;;;24.50;12.43;;;3.60;99.90;;;;;;4999881;28;20542;-74
2022/11/28 05:23:41;;;;;;;22.25;12.25;;;3.60;99.90;;;;;;5001263;28;20065;-74
2022/11/28 05:26:13;;;;;;;25.13;12.57;;;3.50;99.90;;;;;;5003643;28;20034;-73
2022/11/28 05:28:43;;;;;;;20.75;11.27;;;3.50;99.90;;;;;;4998912;28;20073;-74
2022/11/28 05:31:10;;;;;;;21.52;11.75;;;3.50;99.90;;;;;;4998657;28;20123;-75
2022/11/28 05:33:35;;;;;;;25.77;12.60;;;3.50;99.90;;;;;;5001602;28;20041;-74
2022/11/28 05:36:06;;;;;;;21.02;11.43;;;3.50;99.90;;;;;;5000912;28;20391;-73
2022/11/28 05:38:32;;;;;;;23.45;11.85;;;3.50;99.90;;;;;;5002606;28;20038;-73
2022/11/28 05:40:58;;;;;;;21.67;11.35;;;3.50;99.90;;;;;;5002258;28;20030;-73
2022/11/28 05:43:25;;;;;;;19.70;11.27;;;3.50;99.90;;;;;;4998175;28;20032;-73
2022/11/28 05:45:51;;;;;;;23.00;12.55;;;3.50;99.90;;;;;;4999305;28;20034;-72
2022/11/28 05:48:17;;;;;;;24.63;12.02;;;3.50;99.90;;;;;;4999887;28;20529;-73
2022/11/28 05:50:43;;;;;;;20.13;10.23;;;3.60;99.90;;;;;;4999002;28;20027;-73
2022/11/28 05:53:09;;;;;;;20.33;11.02;;;3.50;99.90;;;;;;5000886;28;20471;-73
2022/11/28 05:55:37;;;;;;;25.08;11.43;;;3.50;99.90;;;;;;4999552;28;20474;-73
2022/11/28 05:58:02;;;;;;;25.92;13.65;;;3.60;99.90;;;;;;5000738;28;20029;-73
2022/11/28 06:00:28;;;;;;;21.45;11.43;;;3.60;99.90;;;;;;5003039;28;20435;-73
2022/11/28 06:02:53;;;;;;;20.23;11.60;;;3.60;99.90;;;;;;5002201;28;20044;-72
2022/11/28 06:05:19;;;;;;;21.05;11.93;;;3.60;99.90;;;;;;5000995;28;20030;-73
2022/11/28 06:07:45;;;;;;;24.60;10.90;;;3.60;99.90;;;;;;4997979;28;20037;-73
2022/11/28 06:10:10;;;;;;;21.65;11.35;;;3.50;99.90;;;;;;4998407;28;20092;-72
2022/11/28 06:12:36;;;;;;;23.17;12.10;;;3.60;99.90;;;;;;5000021;28;20050;-72
2022/11/28 06:15:02;;;;;;;25.85;13.38;;;3.60;99.90;;;;;;5002279;28;20034;-72
2022/11/28 06:17:29;;;;;;;20.33;11.38;;;3.60;99.90;;;;;;5002260;28;20586;-73
2022/11/28 06:19:55;;;;;;;22.35;11.43;;;3.60;99.90;;;;;;5001474;28;20037;-73
2022/11/28 06:22:20;;;;;;;25.23;11.63;;;3.60;99.90;;;;;;5003932;28;20030;-73
2022/11/28 06:24:46;;;;;;;23.02;12.07;;;3.60;99.90;;;;;;4997647;28;20030;-73
2022/11/28 06:27:12;;;;;;;19.40;11.82;;;3.60;99.90;;;;;;4999068;28;20034;-72
2022/11/28 06:29:37;;;;;;;19.65;11.48;;;3.60;99.90;;;;;;4998800;28;20022;-72
2022/11/28 06:32:03;;;;;;;20.25;11.45;;;3.60;99.90;;;;;;5001998;28;20022;-72
2022/11/28 06:34:29;;;;;;;22.85;11.85;;;3.60;99.90;;;;;;4999760;28;20089;-73
2022/11/28 06:36:54;;;;;;;23.58;11.98;;;3.60;99.90;;;;;;5001594;28;20034;-72
2022/11/28 06:39:20;;;;;;;19.52;10.55;;;3.60;99.90;;;;;;5000398;28;20425;-73
2022/11/28 06:41:45;;;;;;;20.70;11.88;;;3.60;99.90;;;;;;5000112;28;20582;-73
2022/11/28 06:44:13;;;;;;;20.73;11.50;;;3.60;99.90;;;;;;4997964;28;20061;-72
2022/11/28 06:46:40;;;;;;;19.27;11.43;;;3.60;99.90;;;;;;4997541;28;20129;-72
2022/11/28 06:49:06;;;;;;;21.60;11.07;;;3.60;99.90;;;;;;4997888;28;20030;-73
2022/11/28 06:51:31;;;;;;;18.92;11.00;;;3.70;99.90;;;;;;4998548;28;20037;-73
2022/11/28 06:53:57;;;;;;;22.42;11.35;;;3.70;99.90;;;;;;4998340;28;20117;-73
2022/11/28 06:56:23;;;;;;;18.38;9.88;;;3.70;99.90;;;;;;4999169;28;20088;-73
2022/11/28 06:58:54;;;;;;;20.20;11.30;;;3.70;99.90;;;;;;4997236;28;20026;-73
2022/11/28 07:01:22;;;;;;;21.45;11.70;;;3.70;99.90;;;;;;4998689;28;20081;-73
2022/11/28 07:03:48;;;;;;;21.42;11.40;;;3.70;99.90;;;;;;5001452;28;20026;-72
2022/11/28 07:06:15;;;;;;;19.55;10.95;;;3.80;99.90;;;;;;5004742;28;20084;-73
2022/11/28 07:08:42;;;;;;;19.73;10.40;;;3.80;99.90;;;;;;5002308;28;20470;-73
2022/11/28 07:11:19;;;;;;;21.58;11.38;;;3.80;99.90;;;;;;5001461;28;20037;-72
2022/11/28 07:13:45;;;;;;;20.17;10.85;;;3.80;99.90;;;;;;5000547;28;20026;-72
2022/11/28 07:16:16;;;;;;;18.88;10.27;;;3.90;99.90;;;;;;5001179;28;20053;-72
2022/11/28 07:18:43;;;;;;;17.77;10.90;;;3.90;99.90;;;;;;5000837;28;20038;-72
2022/11/28 07:21:08;;;;;;;19.70;10.63;;;3.90;99.90;;;;;;4998706;28;20446;-72
2022/11/28 07:23:34;;;;;;;19.50;10.80;;;3.90;99.90;;;;;;4999689;28;20023;-72
2022/11/28 07:26:02;;;;;;;21.35;11.30;;;3.90;99.90;;;;;;4998933;28;20374;-73
2022/11/28 07:28:28;;;;;;;20.35;10.50;;;3.90;99.90;;;;;;4998135;28;20097;-72
2022/11/28 07:31:17;;;;;;;18.67;10.63;;;3.90;99.90;;;;;;4999451;28;20037;-72
2022/11/28 07:33:44;;;;;;;;;;;4.00;99.90;;;;;;5003167;28;20054;-73
2022/11/28 07:36:19;;;;;;;19.98;10.85;;;4.00;99.90;;;;;;5000745;28;20314;-72
2022/11/28 07:38:49;;;;;;;23.00;11.65;;;4.00;99.90;;;;;;4999544;28;20022;-73
2022/11/28 07:41:16;;;;;;;18.23;10.25;;;4.10;99.90;;;;;;4999420;28;20482;-73
2022/11/28 07:43:42;;;;;;;16.17;9.13;;;4.10;99.90;;;;;;5000526;28;20033;-72
2022/11/28 07:46:11;;;;;;;25.50;11.02;;;4.20;99.90;;;;;;4982053;28;20058;-72
2022/11/28 07:48:37;;;;;;;18.80;10.88;;;4.20;99.90;;;;;;4998871;28;20035;-72
2022/11/28 07:51:21;;;;;;;20.25;10.75;;;4.20;99.90;;;;;;4998541;28;20045;-73
2022/11/28 07:53:47;;;;;;;19.98;10.77;;;4.20;99.90;;;;;;4998971;28;20078;-72
2022/11/28 07:56:15;;;;;;;21.70;11.65;;;4.20;99.90;;;;;;4997224;28;20529;-72
2022/11/28 07:58:43;;;;;;;19.08;10.80;;;4.20;99.90;;;;;;4997192;28;20061;-72
2022/11/28 08:01:27;;;;;;;20.13;11.98;;;4.20;99.90;;;;;;4997192;28;20145;-72
2022/11/28 08:03:54;;;;;;;20.80;10.77;;;4.20;99.90;;;;;;4997440;28;20054;-73
2022/11/28 08:06:26;;;;;;;20.05;11.50;;;4.30;99.90;;;;;;4997250;28;20049;-72
2022/11/28 08:08:53;;;;;;;19.08;10.65;;;4.40;99.90;;;;;;4997092;28;20076;-72
2022/11/28 08:11:21;;;;;;;19.50;11.10;;;4.40;99.90;;;;;;4996433;28;20030;-73
2022/11/28 08:13:47;;;;;;;19.00;10.68;;;4.50;99.90;;;;;;4996729;28;20026;-72
2022/11/28 08:16:16;;;;;;;20.98;12.00;;;4.50;99.90;;;;;;4997278;28;20037;-72
2022/11/28 08:18:42;;;;;;;20.70;10.57;;;4.60;99.90;;;;;;4980647;28;20037;-73
2022/11/28 08:21:28;;;;;;;20.73;11.02;;;4.60;99.90;;;;;;4996674;28;20041;-73
2022/11/28 08:23:57;;;;;;;17.33;10.02;;;4.70;99.90;;;;;;4980567;28;20034;-73
2022/11/28 08:26:24;;;;;;;19.95;11.48;;;4.80;99.90;;;;;;4998552;28;20034;-73
2022/11/28 08:28:52;;;;;;;20.83;11.02;;;4.80;99.90;;;;;;4995020;28;20038;-72
2022/11/28 08:31:20;;;;;;;22.75;10.93;;;5.00;99.90;;;;;;4995172;28;20057;-73
2022/11/28 08:33:48;;;;;;;18.60;9.82;;;5.10;99.90;;;;;;4993954;28;20057;-72
2022/11/28 08:36:16;;;;;;;19.90;10.75;;;5.20;99.90;;;;;;4995499;28;20085;-74
2022/11/28 08:38:42;;;;;;;18.63;10.90;;;5.40;99.90;;;;;;4997479;28;20031;-73
2022/11/28 08:41:17;;;;;;;18.02;9.68;;;5.90;99.90;;;;;;5002819;28;20277;-74
2022/11/28 08:43:44;;;;;;;16.60;9.57;;;6.30;99.90;;;;;;5002855;28;20371;-73
2022/11/28 08:46:12;;;;;;;16.13;9.02;;;6.90;99.90;;;;;;5003299;28;20381;-74
2022/11/28 08:48:39;;;;;;;14.93;8.93;;;7.10;99.90;;;;;;5001786;28;20058;-73
2022/11/28 08:51:06;;;;;;;16.70;8.57;;;7.10;99.90;;;;;;4994943;28;20027;-73
2022/11/28 08:53:32;;;;;;;15.82;8.13;;;7.20;99.90;;;;;;4981430;28;20434;-73
2022/11/28 08:55:59;;;;;;;16.23;8.57;;;7.30;99.90;;;;;;4978614;28;20452;-73
2022/11/28 08:58:24;;;;;;;14.55;8.57;;;8.10;99.90;;;;;;4994122;28;20090;-73
2022/11/28 09:00:50;;;;;;;14.35;8.68;;;8.80;99.90;;;;;;4977291;28;20026;-73
2022/11/28 09:03:18;;;;;;;11.38;7.47;;;9.10;99.90;;;;;;4994659;28;20101;-73
2022/11/28 09:05:45;;;;;;;13.50;8.55;;;9.00;99.90;;;;;;4977296;28;20101;-73
2022/11/28 09:08:13;;;;;;;14.30;7.85;;;8.90;99.90;;;;;;4994448;28;20030;-73
2022/11/28 09:10:40;;;;;;;15.05;8.25;;;8.60;99.90;;;;;;4977156;28;20030;-73
2022/11/28 09:13:06;;;;;;;12.77;8.00;;;8.50;99.90;;;;;;4993234;28;20030;-73
2022/11/28 09:15:32;;;;;;;9.98;7.03;;;8.20;99.90;;;;;;4993950;28;20038;-72
2022/11/28 09:17:58;;;;;;;11.73;6.95;;;7.60;99.90;;;;;;4978235;28;20030;-72
2022/11/28 09:20:24;;;;;;;17.10;8.55;;;7.40;99.90;;;;;;4977359;28;20026;-72
2022/11/28 09:22:49;;;;;;;12.07;7.68;;;7.40;99.90;;;;;;4995375;28;20061;-72
2022/11/28 09:25:15;;;;;;;14.48;8.23;;;7.40;99.90;;;;;;4994888;28;20070;-73
2022/11/28 09:27:41;;;;;;;11.15;7.32;;;7.60;99.90;;;;;;4994918;28;20026;-72
2022/11/28 09:30:07;;;;;;;15.20;7.13;;;7.70;99.90;;;;;;4995269;28;20117;-72
2022/11/28 09:32:34;;;;;;;14.43;8.52;;;7.80;99.90;;;;;;4993915;28;20069;-73
2022/11/28 09:34:59;;;;;;;9.10;6.47;;;8.10;99.90;;;;;;4997167;28;20050;-73
2022/11/28 09:37:29;;;;;;;13.95;6.32;;;8.40;99.90;;;;;;4997361;28;20091;-73
2022/11/28 09:39:55;;;;;;;11.77;6.72;;;8.50;99.90;;;;;;4998006;28;20026;-73
2022/11/28 09:42:29;;;;;;;10.15;6.15;;;8.70;99.90;;;;;;4997324;28;20544;-73
2022/11/28 09:45:04;;;;;;;10.93;6.93;;;8.80;99.90;;;;;;4981896;28;20117;-74
2022/11/28 09:47:31;;;;;;;11.73;5.88;;;8.90;99.90;;;;;;5004208;28;20030;-76
2022/11/28 09:49:59;;;;;;;10.63;6.30;;;8.60;99.90;;;;;;4988060;28;20030;-73
2022/11/28 09:52:28;;;;;;;14.87;7.50;;;8.50;99.90;;;;;;4987254;28;20022;-74
2022/11/28 09:55:36;;;;;;;12.38;6.60;;;8.70;99.90;;;;;;5002591;28;20037;-73
2022/11/28 09:58:14;;;;;;;9.67;6.40;;;8.90;99.90;;;;;;5003783;28;20034;-73
2022/11/28 10:00:46;;;;;;;13.27;6.18;;;8.90;99.90;;;;;;4987193;28;20027;-73
2022/11/28 10:03:47;;;;;;;8.93;5.80;;;8.70;99.90;;;;;;4985253;28;20360;-73
2022/11/28 10:06:24;;;;;;;9.35;5.47;;;8.90;99.90;;;;;;4986260;28;20070;-73
2022/11/28 10:09:15;;;;;;;15.73;5.60;;;9.00;99.90;;;;;;4998937;28;20033;-73
2022/11/28 10:12:25;;;;;;;12.30;6.03;;;9.50;99.90;;;;;;4981219;28;20026;-73
2022/11/28 10:15:07;;;;;;;9.07;5.20;;;10.10;99.90;;;;;;4904921;28;20034;-73
2022/11/28 10:17:44;;;;;;;9.02;5.88;;;10.50;99.90;;;;;;4996540;28;20033;-73
2022/11/28 10:20:29;;;;;;;9.52;5.97;;;10.60;99.90;;;;;;4996393;28;20026;-73
2022/11/28 10:23:05;;;;;;;6.95;5.18;;;10.70;99.90;;;;;;4998513;28;20026;-73
2022/11/28 10:25:40;;;;;;;13.73;5.10;;;10.00;99.90;;;;;;5001571;28;20038;-73
2022/11/28 10:28:13;;;;;;;6.85;4.63;;;9.80;99.90;;;;;;4985477;28;20367;-73
2022/11/28 10:30:43;;;;;;;7.50;4.97;;;9.40;99.90;;;;;;5001561;28;20483;-73
2022/11/28 10:33:25;;;;;;;7.38;4.65;;;9.40;99.90;;;;;;4983406;28;20037;-72
2022/11/28 10:35:56;;;;;;;11.75;5.53;;;9.20;99.90;;;;;;4999835;28;20089;-73
2022/11/28 10:38:28;;;;;;;7.03;4.90;;;9.40;99.90;;;;;;5000818;28;20098;-73
2022/11/28 10:41:22;;;;;;;8.25;4.80;;;9.50;99.90;;;;;;4982100;28;20430;-73
2022/11/28 10:43:58;;;;;;;10.95;5.38;;;10.60;99.90;;;;;;4995952;28;20027;-73
2022/11/28 10:46:41;;;;;;;5.50;4.82;;;11.50;98.30;;;;;;4997964;28;20084;-74
2022/11/28 10:49:31;;;;;;;7.10;5.10;;;12.30;95.00;;;;;;4996882;28;20550;-73
2022/11/28 10:52:03;;;;;;;6.60;4.72;;;12.00;94.30;;;;;;4981151;28;20026;-73
2022/11/28 10:54:44;;;;;;;11.45;5.18;;;12.70;92.20;;;;;;4997852;28;20029;-73
2022/11/28 10:57:40;;;;;;;6.22;4.80;;;11.90;92.30;;;;;;4999317;28;20451;-73
2022/11/28 11:00:12;;;;;;;7.15;5.03;;;11.40;92.60;;;;;;4996289;28;20026;-73
2022/11/28 11:02:43;;;;;;;7.18;5.38;;;10.70;94.10;;;;;;4995375;28;20092;-73
2022/11/28 11:05:23;;;;;;;6.72;5.00;;;10.10;95.00;;;;;;4998995;28;20022;-73
2022/11/28 11:07:52;;;;;;;11.88;5.38;;;9.50;96.40;;;;;;5002201;28;20050;-73
2022/11/28 11:10:22;;;;;;;8.82;5.63;;;8.80;98.60;;;;;;4987081;28;20026;-73
2022/11/28 11:12:51;;;;;;;6.65;4.45;;;8.70;99.10;;;;;;4985728;28;20102;-73
2022/11/28 11:15:30;;;;;;;10.45;4.68;;;8.60;99.50;;;;;;5002816;28;20479;-73
2022/11/28 11:17:57;;;;;;;9.23;4.95;;;8.60;99.90;;;;;;4984656;28;20050;-73
2022/11/28 11:20:25;;;;;;;9.30;5.38;;;8.40;99.90;;;;;;4984742;28;20030;-73
2022/11/28 11:23:09;;;;;;;7.70;5.20;;;8.30;99.90;;;;;;4989166;28;20045;-73
2022/11/28 11:25:35;;;;;;;8.85;5.97;;;8.40;99.90;;;;;;5004905;28;20109;-73
2022/11/28 11:28:03;;;;;;;8.35;5.15;;;8.40;99.90;;;;;;5003017;28;20075;-73
2022/11/28 11:30:37;;;;;;;8.63;5.10;;;8.40;99.90;;;;;;5001824;28;20076;-73
2022/11/28 11:33:05;;;;;;;7.70;5.75;;;8.50;99.90;;;;;;4982654;28;20386;-73
2022/11/28 11:35:35;;;;;;;7.18;5.20;;;8.30;99.90;;;;;;4983529;28;20054;-73
2022/11/28 11:38:19;;;;;;;12.88;5.28;;;8.20;99.90;;;;;;4999756;28;20034;-73
2022/11/28 11:40:45;;;;;;;7.72;5.53;;;8.20;99.90;;;;;;5001465;28;20459;-73
2022/11/28 11:43:29;;;;;;;7.97;4.95;;;8.00;99.90;;;;;;4983676;28;20529;-73
2022/11/28 11:46:11;;;;;;;7.97;5.57;;;7.80;99.90;;;;;;4980986;28;20355;-73
2022/11/28 11:48:49;;;;;;;7.63;5.05;;;7.60;99.90;;;;;;4981513;28;20039;-73
2022/11/28 11:51:21;;;;;;;9.07;4.78;;;7.50;99.90;;;;;;4980032;28;20073;-73
2022/11/28 11:53:46;;;;;;;7.32;4.60;;;7.50;99.90;;;;;;4997716;28;20030;-73
2022/11/28 11:56:13;;;;;;;7.88;5.07;;;7.70;99.90;;;;;;4982056;28;20053;-73
2022/11/28 11:58:44;;;;;;;10.75;6.18;;;7.70;99.90;;;;;;5000337;28;20030;-73
2022/11/28 12:01:12;;;;;;;10.73;5.45;;;7.70;99.90;;;;;;4998481;28;20027;-73
2022/11/28 12:03:52;;;;;;;14.45;7.93;;;7.60;99.90;;;;;;4996475;28;20030;-73
2022/11/28 12:06:35;;;;;;;10.10;5.50;;;7.60;99.90;;;;;;4999505;28;20085;-73
2022/11/28 12:09:11;;;;;;;7.25;5.05;;;7.70;99.90;;;;;;4997139;28;20034;-73
2022/11/28 12:11:40;;;;;;;10.63;5.75;;;7.50;99.90;;;;;;4998052;28;20033;-73
2022/11/28 12:14:25;;;;;;;9.63;5.95;;;9.50;99.90;;;;;;4980322;28;20029;-74
2022/11/28 12:17:11;;;;;;;10.50;6.10;;;7.70;99.90;;;;;;4997372;28;20026;-73
2022/11/28 12:20:12;;;;;;;11.75;6.60;;;7.60;99.90;;;;;;4994141;28;20034;-73
2022/11/28 12:22:40;;;;;;;10.75;6.38;;;7.40;99.90;;;;;;4882036;29;20391;-73
2022/11/28 12:25:12;;;;;;;13.77;7.33;;;7.40;99.90;;;;;;4960149;28;20034;-73
2022/11/28 12:27:40;;;;;;;12.65;7.18;;;7.40;99.90;;;;;;4996000;28;20273;-73
2022/11/28 12:30:25;;;;;;;13.50;6.95;;;7.30;99.90;;;;;;4994457;28;20101;-73
2022/11/28 12:33:09;;;;;;;10.77;6.00;;;7.30;99.90;;;;;;4996134;28;20470;-74
2022/11/28 12:35:43;;;;;;;15.98;7.55;;;7.20;99.90;;;;;;4995181;28;20069;-73
2022/11/28 12:38:42;;;;;;;12.07;7.18;;;7.10;99.90;;;;;;4977979;28;20117;-72
2022/11/28 12:41:20;;;;;;;13.63;7.53;;;7.10;99.90;;;;;;4994871;28;20030;-73
2022/11/28 12:44:11;;;;;;;10.98;6.75;;;7.10;99.90;;;;;;4995512;28;20034;-73
2022/11/28 12:46:43;;;;;;;14.25;7.00;;;7.30;99.90;;;;;;4997821;28;20041;-73
2022/11/28 12:49:27;;;;;;;10.55;6.15;;;7.40;99.90;;;;;;4994695;28;20125;-72
2022/11/28 12:52:00;;;;;;;10.18;6.30;;;7.30;99.90;;;;;;4994150;28;20026;-73
2022/11/28 12:54:44;;;;;;;15.15;7.53;;;7.30;99.90;;;;;;4993571;28;20121;-73
2022/11/28 12:57:33;;;;;;;18.77;9.27;;;7.30;99.90;;;;;;4995094;28;20035;-72
2022/11/28 12:59:58;;;;;;;17.83;9.30;;;7.30;99.90;;;;;;4980070;28;20022;-73
2022/11/28 13:02:39;;;;;;;23.80;11.55;;;7.40;99.90;;;;;;4996718;28;20033;-73
2022/11/28 13:05:10;;;;;;;28.60;14.88;;;7.50;99.90;;;;;;4997908;28;20027;-72
2022/11/28 13:08:00;;;;;;;22.08;12.20;;;7.40;99.90;;;;;;4998231;28;20038;-72